»·PEaware :: SWA234 KASE-KSLC

SWA234 :: KASE-KSLC

FLIGHT INFORMATION

Flight Status: Arrived
Operator:
Southwest Airlines
More flights by this operator :: More flights under this callsign
Pilot: Anonymous 12565 (12565)
Aircraft: BOEING 737-300
(B733)
More flights by this aircraft type
Origin: KASE Aspen-Pitkin Co/Sardy
United States
Destination: KSLC Salt Lake City Intl
United States
More flights between these airports :: More routes between these airports
Route: +LINDZ8 EKR LEEHY5
File this flight plan on PilotEdge
Remarks:
Altitude:
(Current/Filed)
34,000ft
Speed:
(Current/Filed)
450kts
Departed: 22-Oct-17 11:04 AM
Arrived: 22-Oct-17 12:10 PM
Distance/Time
Traveled:
253nm/1:06
Distance/Time
To Go:
Arrived

Flight Plot

Page will automatically refresh every two minutes.

Flight plan parsing failed; only flown route is shown


Map Options




Map Legend


Flown Route
Filed Route
Departure Airport
Arrival Airport
Navaid (VOR, NDB)
Fix

Horizontal Profiles

Position Reports

Time Latitude Longitude Heading Altitude Ground
Speed
22-Oct-17 10:35 39.221982 -106.866625 153 7780ft 0kts
22-Oct-17 10:36 39.221982 -106.866625 153 7780ft 0kts
22-Oct-17 10:37 39.221982 -106.866625 153 7780ft 0kts
22-Oct-17 10:38 39.221982 -106.866625 153 7780ft 0kts
22-Oct-17 10:39 39.221982 -106.866625 153 7780ft 0kts
22-Oct-17 10:40 39.221982 -106.866625 153 7780ft 0kts
22-Oct-17 10:41 39.221982 -106.866625 153 7780ft 0kts
22-Oct-17 10:42 39.221982 -106.866625 153 7780ft 0kts
22-Oct-17 10:43 39.221982 -106.866625 153 7780ft 0kts
22-Oct-17 10:44 39.221982 -106.866625 153 7780ft 0kts
22-Oct-17 10:45 39.221982 -106.866625 153 7780ft 0kts
22-Oct-17 10:46 39.221974 -106.866619 154 7780ft 0kts
22-Oct-17 10:47 39.221974 -106.866619 154 7780ft 0kts
22-Oct-17 10:48 39.221974 -106.866619 154 7780ft 0kts
22-Oct-17 10:49 39.221974 -106.866619 154 7780ft 0kts
22-Oct-17 10:50 39.221974 -106.866619 154 7780ft 0kts
22-Oct-17 10:51 39.221628 -106.866413 155 7780ft 0kts
22-Oct-17 10:52 39.221628 -106.866413 155 7780ft 0kts
22-Oct-17 10:53 39.221628 -106.866413 155 7780ft 0kts
22-Oct-17 10:54 39.221628 -106.866413 155 7780ft 0kts
22-Oct-17 10:55 39.221628 -106.866413 155 7780ft 0kts
22-Oct-17 10:56 39.221628 -106.866413 155 7780ft 0kts
22-Oct-17 10:57 39.221628 -106.866413 155 7780ft 0kts
22-Oct-17 10:58 39.221628 -106.866413 155 7780ft 0kts
22-Oct-17 10:59 39.221628 -106.866413 155 7780ft 0kts
22-Oct-17 11:00 39.220937 -106.866311 173 7780ft 7kts
22-Oct-17 11:01 39.218859 -106.865539 159 7780ft 8kts
22-Oct-17 11:02 39.217221 -106.864816 163 7780ft 5kts
22-Oct-17 11:03 39.216371 -106.864453 161 7780ft 2kts
22-Oct-17 11:04 39.216087 -106.864330 161 7780ft 0kts
22-Oct-17 11:05 39.215893 -106.864246 162 7780ft 0kts
22-Oct-17 11:06 39.215644 -106.864142 162 7780ft 1kts
22-Oct-17 11:07 39.215172 -106.863966 170 7780ft 1kts
22-Oct-17 11:08 39.214522 -106.864447 260 7780ft 5kts
22-Oct-17 11:09 39.227346 -106.870791 339 7829ft 168kts
22-Oct-17 11:10 39.276265 -106.885257 329 9424ft 208kts
22-Oct-17 11:11 39.300995 -106.945951 301 10741ft 220kts
22-Oct-17 11:12 39.327983 -107.008974 299 12259ft 226kts
22-Oct-17 11:13 39.355129 -107.075234 299 14002ft 232kts
22-Oct-17 11:14 39.382879 -107.148136 284 15918ft 267kts
22-Oct-17 11:15 39.373470 -107.238718 261 17907ft 277kts
22-Oct-17 11:16 39.373727 -107.320299 315 19756ft 274kts
22-Oct-17 11:17 39.450149 -107.345842 339 20148ft 358kts
22-Oct-17 11:18 39.525156 -107.415620 320 23530ft 335kts
22-Oct-17 11:19 39.592413 -107.477888 321 26667ft 311kts
22-Oct-17 11:20 39.659941 -107.540804 321 28548ft 320kts
22-Oct-17 11:21 39.730989 -107.607262 321 30379ft 326kts
22-Oct-17 11:22 39.802629 -107.674505 322 31999ft 329kts
22-Oct-17 11:23 39.871180 -107.739007 322 34143ft 310kts
22-Oct-17 11:24 39.938180 -107.802282 322 34394ft 339kts
22-Oct-17 11:25 40.013723 -107.873769 322 34390ft 372kts
22-Oct-17 11:26 40.071349 -107.978530 278 34411ft 403kts
22-Oct-17 11:27 40.075973 -108.113709 278 34411ft 408kts
22-Oct-17 11:28 40.082655 -108.254448 278 34429ft 408kts
22-Oct-17 11:29 40.088826 -108.395777 278 34427ft 408kts
22-Oct-17 11:30 40.094934 -108.540156 278 34401ft 408kts
22-Oct-17 11:31 40.100674 -108.679886 278 34400ft 408kts
22-Oct-17 11:32 40.106343 -108.822159 277 34400ft 408kts
22-Oct-17 11:33 40.111176 -108.965248 277 34400ft 409kts
22-Oct-17 11:34 40.116258 -109.105289 277 34398ft 409kts
22-Oct-17 11:35 40.121926 -109.248549 277 34401ft 409kts
22-Oct-17 11:36 40.126119 -109.367511 277 34401ft 409kts
22-Oct-17 11:37 40.131085 -109.513974 276 34402ft 409kts
22-Oct-17 11:38 40.136485 -109.679890 277 34413ft 407kts
22-Oct-17 11:39 40.140847 -109.819388 277 34395ft 403kts
22-Oct-17 11:40 40.144349 -109.935593 277 34401ft 403kts
22-Oct-17 11:41 40.148944 -110.094705 277 34409ft 404kts
22-Oct-17 11:42 40.148617 -110.230403 273 33983ft 406kts
22-Oct-17 11:43 40.147573 -110.344959 274 33022ft 397kts
22-Oct-17 11:44 40.146338 -110.479713 274 31893ft 391kts
22-Oct-17 11:45 40.144969 -110.613026 273 30757ft 384kts
22-Oct-17 11:46 40.143469 -110.744426 273 29619ft 378kts
22-Oct-17 11:47 40.141803 -110.877158 273 28450ft 371kts
22-Oct-17 11:48 40.140074 -111.002985 274 26793ft 358kts
22-Oct-17 11:49 40.138396 -111.123175 274 24986ft 350kts
22-Oct-17 11:50 40.136646 -111.239857 272 23311ft 341kts
22-Oct-17 11:51 40.134291 -111.350408 273 21679ft 331kts
22-Oct-17 11:52 40.132257 -111.462636 272 19989ft 329kts
22-Oct-17 11:53 40.139252 -111.572705 295 19033ft 312kts
22-Oct-17 11:54 40.175506 -111.670549 296 18730ft 310kts
22-Oct-17 11:55 40.209872 -111.763753 296 17882ft 306kts
22-Oct-17 11:56 40.241670 -111.850171 296 17051ft 303kts
22-Oct-17 11:57 40.277062 -111.937862 311 16905ft 306kts
22-Oct-17 11:58 40.341898 -111.991514 326 16059ft 306kts
22-Oct-17 11:59 40.406296 -112.040079 327 15231ft 305kts
22-Oct-17 12:00 40.479971 -112.058105 349 14469ft 314kts
22-Oct-17 12:01 40.555464 -112.068043 349 12921ft 309kts
22-Oct-17 12:02 40.636113 -112.078676 352 11177ft 315kts
22-Oct-17 12:03 40.717219 -112.088120 354 10964ft 330kts
22-Oct-17 12:04 40.795656 -112.097341 355 10964ft 302kts
22-Oct-17 12:05 40.868447 -112.105709 355 10990ft 261kts
22-Oct-17 12:06 40.937131 -112.113755 354 10966ft 262kts
22-Oct-17 12:07 41.004436 -112.121731 354 10024ft 258kts
22-Oct-17 12:08 41.046141 -112.068820 102 8131ft 250kts
22-Oct-17 12:09 41.011049 -112.016147 141 7953ft 221kts
22-Oct-17 12:10 40.964708 -111.992545 177 7947ft 214kts
22-Oct-17 12:11 40.910898 -111.989006 175 6482ft 196kts
22-Oct-17 12:12 40.867568 -111.983956 175 5436ft 143kts
22-Oct-17 12:13 40.834730 -111.980010 173 4778ft 127kts
22-Oct-17 12:14 40.804051 -111.976547 175 4232ft 114kts
22-Oct-17 12:15 40.790879 -111.976082 199 4223ft 6kts

Navigation Log

Ident Type
Flight plan parsing failed, navigation log unavailable